createdAt,value
2018-08-04T00:01:17.801Z,23.60
2018-08-04T00:03:46.608Z,23.72
2018-08-04T00:06:15.084Z,23.78
2018-08-04T00:08:43.531Z,23.78
2018-08-04T00:11:11.995Z,23.78
2018-08-04T00:13:40.519Z,23.80
2018-08-04T00:16:09.210Z,23.74
2018-08-04T00:18:37.638Z,23.67
2018-08-04T00:21:06.306Z,23.53
2018-08-04T00:23:34.970Z,23.47
2018-08-04T00:26:03.386Z,23.58
2018-08-04T00:28:31.839Z,23.62
2018-08-04T00:31:00.338Z,23.57
2018-08-04T00:33:28.959Z,23.62
2018-08-04T00:35:57.428Z,23.57
2018-08-04T00:38:25.894Z,23.61
2018-08-04T00:40:54.335Z,23.44
2018-08-04T00:43:22.780Z,23.53
2018-08-04T00:45:51.324Z,23.43
2018-08-04T00:48:19.821Z,23.44
2018-08-04T00:50:48.310Z,23.46
2018-08-04T00:53:16.791Z,23.43
2018-08-04T00:55:45.252Z,23.43
2018-08-04T00:58:13.685Z,23.34
2018-08-04T01:00:42.171Z,23.43
2018-08-04T01:03:10.657Z,23.30
2018-08-04T01:05:39.303Z,23.21
2018-08-04T01:08:07.781Z,23.23
2018-08-04T01:10:36.265Z,23.18
2018-08-04T01:16:36.068Z,23.10
2018-08-04T01:19:04.576Z,23.11
2018-08-04T01:21:33.019Z,23.10
2018-08-04T01:24:01.520Z,23.07
2018-08-04T01:26:29.980Z,23.01
2018-08-04T01:28:58.577Z,23.01
2018-08-04T01:31:27.122Z,23.04
2018-08-04T01:33:55.607Z,23.08
2018-08-04T01:36:24.053Z,23.03
2018-08-04T01:38:52.471Z,23.02
2018-08-04T01:41:21.172Z,22.90
2018-08-04T01:43:49.616Z,22.95
2018-08-04T01:46:18.069Z,22.97
2018-08-04T01:48:46.542Z,22.98
2018-08-04T01:51:15.009Z,22.99
2018-08-04T01:53:43.502Z,22.87
2018-08-04T01:56:11.923Z,22.83
2018-08-04T01:58:40.361Z,22.82
2018-08-04T02:01:08.888Z,22.58
2018-08-04T02:03:37.351Z,22.62
2018-08-04T02:06:06.215Z,22.53
2018-08-04T02:08:34.721Z,22.57
2018-08-04T02:11:03.973Z,22.50
2018-08-04T02:16:31.311Z,22.52
2018-08-04T02:19:00.173Z,22.56
2018-08-04T02:21:28.606Z,22.44
2018-08-04T02:23:57.064Z,22.48
2018-08-04T02:26:25.512Z,22.34
2018-08-04T02:28:53.955Z,22.41
2018-08-04T02:31:22.429Z,22.42
2018-08-04T02:33:50.924Z,22.43
2018-08-04T02:36:19.343Z,22.33
2018-08-04T02:38:47.791Z,22.21
2018-08-04T02:41:16.234Z,22.44
2018-08-04T02:43:44.735Z,22.32
2018-08-04T02:46:13.260Z,22.29
2018-08-04T02:48:41.870Z,22.28
2018-08-04T02:51:10.358Z,22.16
2018-08-04T02:53:38.833Z,22.21
2018-08-04T02:56:08.000Z,22.15
2018-08-04T02:58:36.475Z,22.07
2018-08-04T03:01:04.945Z,22.09
2018-08-04T03:03:33.394Z,22.11
2018-08-04T03:06:01.884Z,21.87
2018-08-04T03:08:30.358Z,22.06
2018-08-04T03:10:58.855Z,22.09
2018-08-04T03:13:27.315Z,22.03
2018-08-04T03:15:55.923Z,22.00
2018-08-04T03:18:24.415Z,21.92
2018-08-04T03:20:52.887Z,21.90
2018-08-04T03:23:21.687Z,21.82
2018-08-04T03:25:50.095Z,21.96
2018-08-04T03:28:18.639Z,22.05
2018-08-04T03:30:47.132Z,21.81
2018-08-04T03:33:15.575Z,21.78
2018-08-04T03:35:44.251Z,21.86
2018-08-04T03:38:13.117Z,21.94
2018-08-04T03:40:41.604Z,21.88
2018-08-04T03:43:10.018Z,21.74
2018-08-04T03:45:38.472Z,21.61
2018-08-04T03:48:06.951Z,21.77
2018-08-04T03:50:35.413Z,21.55
2018-08-04T03:53:04.752Z,21.66
2018-08-04T03:55:33.233Z,21.89
2018-08-04T03:58:01.690Z,21.94
2018-08-04T04:00:30.143Z,21.93
2018-08-04T04:02:58.575Z,21.88
2018-08-04T04:05:27.391Z,21.86
2018-08-04T04:07:55.873Z,21.98
2018-08-04T04:10:24.324Z,21.78
2018-08-04T04:12:52.799Z,21.83
2018-08-04T04:15:21.328Z,21.88
2018-08-04T04:17:50.068Z,22.04
2018-08-04T04:20:19.701Z,22.24
2018-08-04T04:22:48.882Z,21.88
2018-08-04T04:25:17.388Z,21.99
2018-08-04T04:27:45.835Z,22.15
2018-08-04T04:30:15.277Z,22.15
2018-08-04T04:32:43.716Z,22.13
2018-08-04T04:35:12.216Z,22.11
2018-08-04T04:41:11.780Z,22.35
2018-08-04T04:43:40.590Z,22.50
2018-08-04T04:46:09.079Z,22.63
2018-08-04T04:48:37.602Z,22.42
2018-08-04T04:51:05.986Z,22.20
2018-08-04T04:53:34.427Z,22.17
2018-08-04T04:56:02.889Z,22.28
2018-08-04T04:58:31.375Z,22.32
2018-08-04T05:00:59.846Z,22.42
2018-08-04T05:03:28.275Z,22.54
2018-08-04T05:05:56.795Z,22.69
2018-08-04T05:08:25.681Z,22.73
2018-08-04T05:10:54.083Z,22.73
2018-08-04T05:13:22.581Z,22.95
2018-08-04T05:15:51.035Z,22.95
2018-08-04T05:18:19.459Z,23.15
2018-08-04T05:20:47.916Z,23.14
2018-08-04T05:23:16.408Z,23.09
2018-08-04T05:25:44.907Z,23.33
2018-08-04T05:28:13.357Z,23.36
2018-08-04T05:30:41.888Z,23.46
2018-08-04T05:33:10.365Z,23.20
2018-08-04T05:35:38.848Z,23.23
2018-08-04T05:38:07.600Z,23.24
2018-08-04T05:40:36.068Z,23.40
2018-08-04T05:43:04.527Z,23.44
2018-08-04T05:45:32.986Z,23.58
2018-08-04T05:48:01.501Z,23.76
2018-08-04T05:50:30.022Z,23.72
2018-08-04T05:52:58.568Z,23.84
2018-08-04T05:55:26.985Z,24.01
2018-08-04T05:57:55.470Z,24.09
2018-08-04T06:00:23.967Z,23.92
2018-08-04T06:02:52.397Z,24.09
2018-08-04T06:05:20.862Z,24.23
2018-08-04T06:07:49.824Z,24.42
2018-08-04T06:10:18.327Z,24.17
2018-08-04T06:12:46.770Z,24.45
2018-08-04T06:15:15.227Z,24.65
2018-08-04T06:17:43.966Z,24.49
2018-08-04T06:20:12.651Z,24.27
2018-08-04T06:22:41.250Z,24.48
2018-08-04T06:25:09.696Z,24.52
2018-08-04T06:27:38.131Z,24.62
2018-08-04T06:30:08.447Z,24.74
2018-08-04T06:32:36.851Z,24.96
2018-08-04T06:35:05.379Z,25.26
2018-08-04T06:37:33.988Z,25.15
2018-08-04T06:40:02.428Z,25.39
2018-08-04T06:42:30.860Z,25.13
2018-08-04T06:44:59.313Z,25.67
2018-08-04T06:47:27.814Z,25.76
2018-08-04T06:49:56.278Z,25.65
2018-08-04T06:52:24.771Z,25.16
2018-08-04T06:54:53.338Z,25.28
2018-08-04T06:57:21.880Z,25.42
2018-08-04T06:59:50.284Z,25.65
2018-08-04T07:02:18.816Z,25.72
2018-08-04T07:04:47.284Z,25.65
2018-08-04T07:07:15.712Z,26.18
2018-08-04T07:09:44.166Z,26.31
2018-08-04T07:12:12.688Z,26.22
2018-08-04T07:14:42.231Z,25.83
2018-08-04T07:17:10.949Z,26.18
2018-08-04T07:19:39.379Z,26.30
2018-08-04T07:22:07.769Z,26.17
2018-08-04T07:24:36.238Z,26.05
2018-08-04T07:27:04.714Z,26.80
2018-08-04T07:29:33.139Z,26.65
2018-08-04T07:32:01.606Z,26.80
2018-08-04T07:34:30.017Z,26.55
2018-08-04T07:36:58.664Z,27.01
2018-08-04T07:39:27.124Z,27.31
2018-08-04T07:41:55.599Z,27.31
2018-08-04T07:44:24.993Z,27.25
2018-08-04T07:46:53.403Z,27.45
2018-08-04T07:49:21.866Z,28.14
2018-08-04T07:51:50.346Z,28.46
2018-08-04T07:54:18.799Z,28.08
2018-08-04T07:56:47.270Z,27.79
2018-08-04T07:59:15.739Z,27.98
2018-08-04T08:01:44.278Z,28.28
2018-08-04T08:04:12.715Z,28.37
2018-08-04T08:06:41.147Z,28.55
2018-08-04T08:09:09.836Z,28.50
2018-08-04T08:11:38.324Z,27.83
2018-08-04T08:14:06.779Z,28.45
2018-08-04T08:16:35.223Z,28.43
2018-08-04T08:19:03.657Z,28.93
2018-08-04T08:21:32.163Z,28.38
2018-08-04T08:24:00.967Z,28.54
2018-08-04T08:26:29.393Z,28.78
2018-08-04T08:28:57.801Z,29.30
2018-08-04T08:31:26.282Z,29.52
2018-08-04T08:33:54.758Z,29.56
2018-08-04T08:36:23.299Z,29.52
2018-08-04T08:38:52.024Z,29.91
2018-08-04T08:41:20.495Z,29.40
2018-08-04T08:43:49.231Z,30.11
2018-08-04T08:46:17.674Z,29.79
2018-08-04T08:48:46.129Z,29.81
2018-08-04T08:51:14.591Z,29.94
2018-08-04T08:53:43.118Z,30.33
2018-08-04T08:56:11.492Z,30.23
2018-08-04T08:58:39.909Z,29.45
2018-08-04T09:01:08.428Z,30.38
2018-08-04T09:03:36.899Z,30.45
2018-08-04T09:06:05.590Z,30.32
2018-08-04T09:08:34.315Z,30.68
2018-08-04T09:11:02.715Z,31.24
2018-08-04T09:13:31.225Z,31.38
2018-08-04T09:15:59.703Z,31.45
2018-08-04T09:18:28.372Z,31.52
2018-08-04T09:20:57.779Z,31.04
2018-08-04T09:23:26.572Z,31.44
2018-08-04T09:25:55.031Z,31.38
2018-08-04T09:28:23.490Z,31.68
2018-08-04T09:30:51.946Z,32.27
2018-08-04T09:33:20.414Z,32.42
2018-08-04T09:35:48.854Z,32.37
2018-08-04T09:38:17.294Z,31.64
2018-08-04T09:40:46.002Z,31.75
2018-08-04T09:43:14.448Z,31.92
2018-08-04T09:45:42.883Z,32.37
2018-08-04T09:48:11.473Z,32.23
2018-08-04T09:50:39.985Z,32.24
2018-08-04T09:53:08.651Z,32.71
2018-08-04T09:55:37.220Z,33.13
2018-08-04T09:58:06.042Z,33.53
2018-08-04T10:00:39.640Z,33.39
2018-08-04T10:03:08.183Z,33.55
2018-08-04T10:05:36.708Z,33.24
2018-08-04T10:08:05.143Z,33.66
2018-08-04T10:10:33.608Z,33.64
2018-08-04T10:13:02.033Z,33.78
2018-08-04T10:15:30.476Z,34.32
2018-08-04T10:17:58.958Z,34.34
2018-08-04T10:20:27.428Z,34.02
2018-08-04T10:22:55.925Z,34.45
2018-08-04T10:25:24.567Z,33.98
2018-08-04T10:27:53.037Z,33.71
2018-08-04T10:30:21.631Z,33.98
2018-08-04T10:32:50.113Z,34.49
2018-08-04T10:35:18.520Z,34.53
2018-08-04T10:37:47.063Z,34.84
2018-08-04T10:40:15.515Z,34.67
2018-08-04T10:42:44.061Z,34.47
2018-08-04T10:45:12.540Z,34.82
2018-08-04T10:47:40.992Z,34.34
2018-08-04T10:50:09.512Z,33.38
2018-08-04T10:52:38.313Z,34.09
2018-08-04T10:55:06.772Z,34.70
2018-08-04T10:57:35.213Z,34.52
2018-08-04T11:00:04.018Z,34.00
2018-08-04T11:02:32.471Z,34.63
2018-08-04T11:05:00.900Z,34.81
2018-08-04T11:07:29.388Z,35.40
2018-08-04T11:09:57.801Z,35.31
2018-08-04T11:12:26.461Z,35.65
2018-08-04T11:14:54.832Z,35.93
2018-08-04T11:17:23.888Z,35.95
2018-08-04T11:19:52.338Z,35.65
2018-08-04T11:22:20.756Z,35.13
2018-08-04T11:24:49.427Z,36.99
2018-08-04T11:27:17.831Z,36.44
2018-08-04T11:29:46.378Z,36.72
2018-08-04T11:32:14.976Z,36.38
2018-08-04T11:34:43.527Z,36.77
2018-08-04T11:37:12.246Z,35.92
2018-08-04T11:39:40.664Z,35.99
2018-08-04T11:42:09.266Z,37.18
2018-08-04T11:44:37.997Z,38.21
2018-08-04T11:47:06.867Z,38.85
2018-08-04T11:49:35.283Z,39.65
2018-08-04T11:52:03.680Z,38.39
2018-08-04T11:54:32.401Z,39.96
2018-08-04T11:57:00.851Z,40.19
2018-08-04T11:59:29.287Z,40.30
2018-08-04T12:01:57.833Z,40.24
2018-08-04T12:04:26.233Z,40.58
2018-08-04T12:06:54.702Z,39.75
2018-08-04T12:09:23.141Z,38.52
2018-08-04T12:11:51.605Z,39.58
2018-08-04T12:14:20.060Z,40.84
2018-08-04T12:16:48.503Z,39.86
2018-08-04T12:19:16.952Z,40.47
2018-08-04T12:21:45.419Z,38.69
2018-08-04T12:24:13.845Z,40.56
2018-08-04T12:26:42.296Z,40.43
2018-08-04T12:29:11.244Z,37.84
2018-08-04T12:31:39.672Z,36.82
2018-08-04T12:34:08.083Z,37.33
2018-08-04T12:36:36.548Z,38.94
2018-08-04T12:39:07.895Z,40.35
2018-08-04T12:41:36.439Z,42.65
2018-08-04T12:44:06.407Z,42.16
2018-08-04T12:46:34.837Z,41.18
2018-08-04T12:49:03.326Z,43.34
2018-08-04T12:51:31.751Z,43.94
2018-08-04T12:54:00.211Z,43.61
2018-08-04T12:56:28.740Z,42.59
2018-08-04T12:58:57.421Z,43.76
2018-08-04T13:01:26.115Z,43.03
2018-08-04T13:03:54.566Z,42.24
2018-08-04T13:06:23.148Z,43.20
2018-08-04T13:08:51.864Z,40.87
2018-08-04T13:11:20.275Z,43.73
2018-08-04T13:13:49.155Z,44.36
2018-08-04T13:16:17.953Z,42.82
2018-08-04T13:18:46.433Z,44.19
2018-08-04T13:21:14.935Z,43.95
2018-08-04T13:23:43.349Z,42.48
2018-08-04T13:26:12.106Z,42.49
2018-08-04T13:28:40.570Z,40.23
2018-08-04T13:31:09.008Z,42.16
2018-08-04T13:33:37.771Z,44.38
2018-08-04T13:36:06.200Z,44.80
2018-08-04T13:38:34.931Z,44.89
2018-08-04T13:41:03.331Z,44.86
2018-08-04T13:43:31.809Z,44.58
2018-08-04T13:46:00.368Z,41.34
2018-08-04T13:48:28.812Z,42.52
2018-08-04T13:50:57.446Z,42.25
2018-08-04T13:53:25.897Z,41.30
2018-08-04T13:55:54.824Z,41.89
2018-08-04T13:58:23.312Z,41.63
2018-08-04T14:00:51.756Z,43.68
2018-08-04T14:03:20.245Z,43.78
2018-08-04T14:05:48.730Z,43.35
2018-08-04T14:08:17.384Z,41.67
2018-08-04T14:10:45.837Z,39.59
2018-08-04T14:13:14.307Z,39.58
2018-08-04T14:15:42.694Z,38.22
2018-08-04T14:18:11.166Z,39.12
2018-08-04T14:20:39.616Z,39.64
2018-08-04T14:23:08.168Z,38.07
2018-08-04T14:25:36.667Z,37.12
2018-08-04T14:28:05.100Z,36.84
2018-08-04T14:30:33.493Z,37.16
2018-08-04T14:33:01.932Z,35.84
2018-08-04T14:35:30.448Z,35.92
2018-08-04T14:37:58.950Z,35.93
2018-08-04T14:40:27.390Z,35.98
2018-08-04T14:42:56.022Z,36.46
2018-08-04T14:45:24.435Z,35.68
2018-08-04T14:47:52.854Z,35.77
2018-08-04T14:50:21.566Z,35.08
2018-08-04T14:52:50.008Z,34.66
2018-08-04T14:55:18.768Z,34.65
2018-08-04T14:57:47.257Z,33.99
2018-08-04T15:00:15.796Z,34.33
2018-08-04T15:02:44.491Z,34.34
2018-08-04T15:05:13.510Z,34.61
2018-08-04T15:07:41.982Z,34.79
2018-08-04T15:10:10.566Z,35.00
2018-08-04T15:12:39.234Z,34.96
2018-08-04T15:15:08.309Z,34.70
2018-08-04T15:17:36.779Z,34.45
2018-08-04T15:20:06.266Z,35.14
2018-08-04T15:22:34.951Z,35.22
2018-08-04T15:25:03.447Z,35.17
2018-08-04T15:27:32.322Z,34.82
2018-08-04T15:30:00.799Z,35.78
2018-08-04T15:32:29.226Z,35.83
2018-08-04T15:34:57.708Z,35.51
2018-08-04T15:37:26.460Z,34.82
2018-08-04T15:39:54.916Z,35.28
2018-08-04T15:42:23.415Z,35.34
2018-08-04T15:44:51.831Z,36.66
2018-08-04T15:47:20.559Z,36.42
2018-08-04T15:49:48.980Z,36.30
2018-08-04T15:52:17.648Z,35.58
2018-08-04T15:54:46.175Z,35.12
2018-08-04T15:57:14.686Z,35.13
2018-08-04T15:59:46.111Z,34.82
2018-08-04T16:02:14.556Z,34.33
2018-08-04T16:04:43.007Z,34.32
2018-08-04T16:07:11.661Z,34.35
2018-08-04T16:09:40.083Z,34.40
2018-08-04T16:12:08.511Z,34.12
2018-08-04T16:14:36.999Z,34.23
2018-08-04T16:17:05.505Z,33.93
2018-08-04T16:19:33.975Z,33.80
2018-08-04T16:22:02.437Z,33.86
2018-08-04T16:24:31.552Z,33.71
2018-08-04T16:26:59.932Z,33.77
2018-08-04T16:29:28.370Z,33.68
2018-08-04T16:31:56.842Z,33.55
2018-08-04T16:34:25.271Z,33.65
2018-08-04T16:36:53.886Z,34.05
2018-08-04T16:39:22.379Z,33.66
2018-08-04T16:41:51.139Z,33.95
2018-08-04T16:44:19.650Z,33.71
2018-08-04T16:46:48.160Z,33.58
2018-08-04T16:49:16.877Z,33.83
2018-08-04T16:51:48.527Z,33.82
2018-08-04T16:54:17.011Z,33.86
2018-08-04T16:56:45.696Z,33.95
2018-08-04T16:59:14.162Z,33.93
2018-08-04T17:01:42.743Z,34.02
2018-08-04T17:04:11.487Z,34.01
2018-08-04T17:06:39.943Z,33.92
2018-08-04T17:09:11.051Z,33.71
2018-08-04T17:11:39.487Z,33.77
2018-08-04T17:14:08.320Z,33.71
2018-08-04T17:16:37.100Z,33.58
2018-08-04T17:19:05.771Z,33.50
2018-08-04T17:21:34.732Z,33.36
2018-08-04T17:24:03.401Z,33.52
2018-08-04T17:26:31.891Z,33.75
2018-08-04T17:29:00.538Z,33.19
2018-08-04T17:31:29.223Z,33.31
2018-08-04T17:33:57.708Z,33.38
2018-08-04T17:36:26.188Z,33.30
2018-08-04T17:38:54.951Z,33.22
2018-08-04T17:41:23.554Z,33.18
2018-08-04T17:43:52.018Z,33.16
2018-08-04T17:46:20.492Z,33.14
2018-08-04T17:48:49.133Z,33.10
2018-08-04T17:51:17.612Z,33.04
2018-08-04T17:53:46.183Z,33.04
2018-08-04T17:56:14.607Z,32.79
2018-08-04T17:58:43.302Z,32.79
2018-08-04T18:01:11.921Z,32.76
2018-08-04T18:03:40.466Z,32.63
2018-08-04T18:06:09.383Z,32.65
2018-08-04T18:08:37.823Z,32.65
2018-08-04T18:11:06.306Z,32.45
2018-08-04T18:13:34.772Z,32.26
2018-08-04T18:16:03.322Z,32.06
2018-08-04T18:18:31.857Z,31.94
2018-08-04T18:21:00.295Z,31.85
2018-08-04T18:23:28.735Z,31.91
2018-08-04T18:25:57.126Z,31.71
2018-08-04T18:28:25.599Z,31.66
2018-08-04T18:30:54.115Z,31.55
2018-08-04T18:33:22.723Z,31.51
2018-08-04T18:35:51.214Z,31.40
2018-08-04T18:38:19.923Z,31.30
2018-08-04T18:40:48.346Z,31.26
2018-08-04T18:43:16.878Z,31.02
2018-08-04T18:45:45.352Z,30.94
2018-08-04T18:48:13.849Z,30.93
2018-08-04T18:50:42.340Z,30.75
2018-08-04T18:53:10.969Z,30.75
2018-08-04T18:55:39.525Z,30.78
2018-08-04T18:58:08.646Z,30.73
2018-08-04T19:00:37.555Z,30.68
2018-08-04T19:03:06.149Z,30.53
2018-08-04T19:05:34.555Z,30.58
2018-08-04T19:08:03.024Z,30.27
2018-08-04T19:10:31.545Z,30.09
2018-08-04T19:13:00.031Z,30.03
2018-08-04T19:15:28.494Z,30.15
2018-08-04T19:17:57.267Z,30.22
2018-08-04T19:20:25.712Z,30.36
2018-08-04T19:22:54.160Z,30.42
2018-08-04T19:25:22.610Z,30.29
2018-08-04T19:27:51.228Z,30.32
2018-08-04T19:30:19.645Z,30.38
2018-08-04T19:32:48.112Z,30.27
2018-08-04T19:35:16.553Z,30.30
2018-08-04T19:37:45.020Z,30.21
2018-08-04T19:40:14.316Z,30.14
2018-08-04T19:42:42.959Z,29.92
2018-08-04T19:45:11.655Z,29.80
2018-08-04T19:47:40.066Z,29.72
2018-08-04T19:50:08.577Z,29.76
2018-08-04T19:52:37.088Z,29.72
2018-08-04T19:55:06.092Z,29.82
2018-08-04T19:57:34.515Z,29.79
2018-08-04T20:00:03.074Z,29.70
2018-08-04T20:02:31.539Z,29.76
2018-08-04T20:04:59.955Z,29.73
2018-08-04T20:07:28.599Z,29.68
2018-08-04T20:09:57.041Z,29.71
2018-08-04T20:12:25.501Z,29.49
2018-08-04T20:14:54.056Z,29.40
2018-08-04T20:17:22.521Z,29.46
2018-08-04T20:19:50.980Z,29.36
2018-08-04T20:22:19.400Z,29.26
2018-08-04T20:24:47.892Z,29.28
2018-08-04T20:27:16.619Z,29.23
2018-08-04T20:29:45.136Z,29.11
2018-08-04T20:32:13.569Z,29.09
2018-08-04T20:34:42.011Z,28.96
2018-08-04T20:37:10.707Z,28.86
2018-08-04T20:39:39.215Z,28.82
2018-08-04T20:42:07.663Z,28.81
2018-08-04T20:44:36.437Z,28.53
2018-08-04T20:47:04.878Z,28.52
2018-08-04T20:49:33.309Z,28.57
2018-08-04T20:52:01.791Z,28.53
2018-08-04T20:54:30.227Z,28.46
2018-08-04T20:56:58.732Z,28.41
2018-08-04T20:59:27.319Z,28.18
2018-08-04T21:02:26.774Z,28.03
2018-08-04T21:04:55.233Z,27.99
2018-08-04T21:07:24.759Z,28.00
2018-08-04T21:09:53.500Z,28.01
2018-08-04T21:12:22.003Z,27.88
2018-08-04T21:14:50.440Z,27.73
2018-08-04T21:17:18.900Z,27.63
2018-08-04T21:19:47.323Z,27.57
2018-08-04T21:22:15.743Z,27.50
2018-08-04T21:24:44.170Z,27.49
2018-08-04T21:27:12.797Z,27.33
2018-08-04T21:29:41.243Z,27.27
2018-08-04T21:32:09.706Z,27.19
2018-08-04T21:34:38.144Z,27.16
2018-08-04T21:37:06.566Z,27.09
2018-08-04T21:39:35.044Z,27.05
2018-08-04T21:42:03.685Z,26.91
2018-08-04T21:44:32.139Z,27.03
2018-08-04T21:47:00.593Z,27.05
2018-08-04T21:49:29.735Z,27.13
2018-08-04T21:51:58.182Z,27.10
2018-08-04T21:54:26.672Z,27.05
2018-08-04T21:56:55.145Z,26.95
2018-08-04T21:59:23.604Z,26.88
2018-08-04T22:01:54.096Z,26.68
2018-08-04T22:04:22.487Z,26.76
2018-08-04T22:07:02.123Z,26.62
2018-08-04T22:09:30.554Z,26.52
2018-08-04T22:11:58.952Z,26.55
2018-08-04T22:14:27.704Z,26.62
2018-08-04T22:16:56.116Z,26.67
2018-08-04T22:19:24.515Z,26.70
2018-08-04T22:21:53.314Z,26.62
2018-08-04T22:24:21.715Z,26.56
2018-08-04T22:26:50.116Z,26.61
2018-08-04T22:29:18.533Z,26.54
2018-08-04T22:31:46.936Z,26.56
2018-08-04T22:34:15.423Z,26.54
2018-08-04T22:36:44.031Z,26.51
2018-08-04T22:39:12.625Z,26.47
2018-08-04T22:41:41.113Z,26.36
2018-08-04T22:44:09.815Z,26.30
2018-08-04T22:46:38.496Z,26.38
2018-08-04T22:49:07.163Z,26.31
2018-08-04T22:51:35.632Z,26.31
2018-08-04T22:54:04.062Z,26.23
2018-08-04T22:56:32.819Z,26.11
2018-08-04T22:59:01.229Z,26.00
2018-08-04T23:01:29.708Z,25.97
2018-08-04T23:03:58.210Z,25.88
2018-08-04T23:06:26.640Z,25.83
2018-08-04T23:08:55.064Z,25.94
2018-08-04T23:11:23.451Z,25.89
2018-08-04T23:13:51.870Z,25.74
2018-08-04T23:16:20.316Z,25.70
2018-08-04T23:18:48.726Z,25.76
2018-08-04T23:21:17.397Z,25.69
2018-08-04T23:23:45.806Z,25.82
2018-08-04T23:26:14.222Z,25.75
2018-08-04T23:28:42.646Z,25.61
2018-08-04T23:31:11.144Z,25.48
2018-08-04T23:33:39.555Z,25.41
2018-08-04T23:36:08.400Z,25.45
2018-08-04T23:38:36.832Z,25.33
2018-08-04T23:41:05.268Z,25.36
2018-08-04T23:43:33.667Z,25.24
2018-08-04T23:46:02.108Z,25.19
2018-08-04T23:48:30.524Z,25.13
2018-08-04T23:50:58.963Z,25.17
2018-08-04T23:53:27.555Z,25.27
2018-08-04T23:55:56.033Z,25.22
2018-08-04T23:58:24.444Z,24.96
